createdAt,value
2019-02-19T00:04:03.610Z,-3.50
2019-02-19T00:06:51.925Z,-3.60
2019-02-19T00:09:39.966Z,-3.60
2019-02-19T00:12:28.096Z,-3.70
2019-02-19T00:15:16.218Z,-3.70
2019-02-19T00:18:04.345Z,-3.70
2019-02-19T00:20:52.714Z,-3.70
2019-02-19T00:23:40.767Z,-3.60
2019-02-19T00:26:28.885Z,-3.60
2019-02-19T00:29:16.921Z,-3.70
2019-02-19T00:32:05.040Z,-3.70
2019-02-19T00:34:53.410Z,-3.70
2019-02-19T00:37:41.530Z,-3.70
2019-02-19T00:40:29.642Z,-3.70
2019-02-19T00:43:17.766Z,-3.80
2019-02-19T00:46:05.884Z,-3.80
2019-02-19T00:48:54.017Z,-3.80
2019-02-19T00:51:42.124Z,-3.80
2019-02-19T00:54:22.922Z,-3.80
2019-02-19T00:57:03.806Z,-3.80
2019-02-19T00:59:44.621Z,-3.80
2019-02-19T01:02:25.306Z,-3.90
2019-02-19T01:05:06.026Z,-3.90
2019-02-19T01:07:46.621Z,-3.90
2019-02-19T01:10:27.330Z,-3.90
2019-02-19T01:13:08.117Z,-3.90
2019-02-19T01:15:48.818Z,-4.00
2019-02-19T01:18:29.917Z,-4.00
2019-02-19T01:21:10.629Z,-4.10
2019-02-19T01:23:51.213Z,-4.00
2019-02-19T01:26:31.935Z,-4.00
2019-02-19T01:29:12.844Z,-4.00
2019-02-19T01:31:53.429Z,-4.00
2019-02-19T01:34:34.073Z,-4.10
2019-02-19T01:37:14.843Z,-4.10
2019-02-19T01:39:55.582Z,-4.10
2019-02-19T01:45:18.145Z,-4.10
2019-02-19T01:47:59.204Z,-4.10
2019-02-19T01:50:40.175Z,-4.10
2019-02-19T01:53:20.792Z,-4.20
2019-02-19T01:56:01.465Z,-4.20
2019-02-19T01:58:40.604Z,-4.20
2019-02-19T02:01:28.650Z,-4.10
2019-02-19T02:04:16.789Z,-4.10
2019-02-19T02:07:04.918Z,-4.20
2019-02-19T02:09:52.962Z,-4.20
2019-02-19T02:12:41.008Z,-4.10
2019-02-19T02:18:36.228Z,-4.20
2019-02-19T02:21:24.345Z,-4.20
2019-02-19T02:24:12.493Z,-4.20
2019-02-19T02:27:00.829Z,-4.30
2019-02-19T02:29:48.957Z,-4.20
2019-02-19T02:32:36.991Z,-4.30
2019-02-19T02:35:25.298Z,-4.30
2019-02-19T02:38:13.415Z,-4.30
2019-02-19T02:41:01.468Z,-4.30
2019-02-19T02:43:49.535Z,-4.30
2019-02-19T02:46:37.813Z,-4.30
2019-02-19T02:52:05.909Z,-4.20
2019-02-19T02:54:46.290Z,-4.20
2019-02-19T02:57:26.778Z,-4.30
2019-02-19T03:00:08.099Z,-4.30
2019-02-19T03:02:48.932Z,-4.40
2019-02-19T03:05:29.765Z,-4.30
2019-02-19T03:08:10.498Z,-4.40
2019-02-19T03:10:51.394Z,-4.40
2019-02-19T03:13:32.046Z,-4.50
2019-02-19T03:16:12.780Z,-4.50
2019-02-19T03:18:53.506Z,-4.50
2019-02-19T03:21:34.281Z,-4.60
2019-02-19T03:24:15.144Z,-4.50
2019-02-19T03:26:55.830Z,-4.50
2019-02-19T03:29:36.257Z,-4.60
2019-02-19T03:32:16.933Z,-4.60
2019-02-19T03:34:57.697Z,-4.60
2019-02-19T03:37:38.275Z,-4.70
2019-02-19T03:40:19.059Z,-4.60
2019-02-19T03:45:42.123Z,-4.60
2019-02-19T03:51:05.573Z,-4.60
2019-02-19T03:56:32.154Z,-4.60
2019-02-19T04:01:55.303Z,-4.70
2019-02-19T04:04:35.710Z,-4.70
2019-02-19T04:07:16.225Z,-4.70
2019-02-19T04:09:56.822Z,-4.70
2019-02-19T04:12:37.891Z,-4.70
2019-02-19T04:15:18.374Z,-4.70
2019-02-19T04:17:59.333Z,-4.70
2019-02-19T04:20:40.021Z,-4.70
2019-02-19T04:23:20.773Z,-4.70
2019-02-19T04:26:01.470Z,-4.70
2019-02-19T04:28:42.183Z,-4.70
2019-02-19T04:31:22.806Z,-4.80
2019-02-19T04:34:03.901Z,-4.70
2019-02-19T04:36:44.594Z,-4.70
2019-02-19T04:39:25.548Z,-4.80
2019-02-19T04:42:06.206Z,-4.80
2019-02-19T04:44:46.794Z,-4.80
2019-02-19T04:47:27.606Z,-4.80
2019-02-19T04:50:08.385Z,-4.80
2019-02-19T04:52:49.503Z,-4.90
2019-02-19T04:55:30.371Z,-4.90
2019-02-19T05:01:00.271Z,-4.80
2019-02-19T05:03:40.800Z,-4.80
2019-02-19T05:06:21.756Z,-4.80
2019-02-19T05:09:02.492Z,-4.80
2019-02-19T05:11:43.260Z,-4.80
2019-02-19T05:14:24.111Z,-4.80
2019-02-19T05:17:04.739Z,-4.80
2019-02-19T05:19:45.971Z,-4.90
2019-02-19T05:22:26.654Z,-4.80
2019-02-19T05:25:07.330Z,-4.80
2019-02-19T05:27:48.230Z,-4.80
2019-02-19T05:30:29.161Z,-6.00
2019-02-19T05:33:09.824Z,-4.80
2019-02-19T05:35:50.603Z,-4.80
2019-02-19T05:38:31.703Z,-4.80
2019-02-19T05:41:12.395Z,-3.90
2019-02-19T05:43:52.889Z,-4.80
2019-02-19T05:46:33.839Z,-4.90
2019-02-19T05:49:14.406Z,-4.80
2019-02-19T05:51:54.778Z,-4.80
2019-02-19T05:54:35.106Z,-4.90
2019-02-19T05:57:15.873Z,-4.90
2019-02-19T05:59:56.403Z,-5.00
2019-02-19T06:02:37.001Z,-5.00
2019-02-19T06:05:17.518Z,-4.90
2019-02-19T06:07:58.005Z,-4.90
2019-02-19T06:10:38.476Z,-4.90
2019-02-19T06:13:18.956Z,-4.90
2019-02-19T06:15:59.545Z,-4.90
2019-02-19T06:18:40.341Z,-4.90
2019-02-19T06:21:25.947Z,-4.90
2019-02-19T06:24:06.695Z,-4.80
2019-02-19T06:26:47.277Z,-4.80
2019-02-19T06:29:27.977Z,-4.80
2019-02-19T06:32:08.597Z,-4.80
2019-02-19T06:34:49.310Z,-4.80
2019-02-19T06:37:29.819Z,-4.80
2019-02-19T06:40:10.692Z,-4.70
2019-02-19T06:42:51.242Z,-4.60
2019-02-19T06:45:31.838Z,-4.60
2019-02-19T06:48:12.269Z,-4.50
2019-02-19T06:50:53.213Z,-4.50
2019-02-19T06:53:34.010Z,-4.30
2019-02-19T06:56:14.635Z,-4.20
2019-02-19T06:58:55.749Z,-4.00
2019-02-19T07:01:58.448Z,-4.00
2019-02-19T07:04:43.883Z,-3.80
2019-02-19T07:07:24.971Z,-3.70
2019-02-19T07:10:05.307Z,-3.60
2019-02-19T07:12:45.778Z,-3.50
2019-02-19T07:15:26.154Z,-3.30
2019-02-19T07:18:06.871Z,-3.30
2019-02-19T07:23:36.712Z,-3.00
2019-02-19T07:26:17.688Z,-2.80
2019-02-19T07:28:58.522Z,-2.60
2019-02-19T07:31:39.245Z,-2.40
2019-02-19T07:34:20.037Z,-2.20
2019-02-19T07:37:00.782Z,-2.10
2019-02-19T07:39:41.769Z,-1.80
2019-02-19T07:42:22.281Z,-1.60
2019-02-19T07:45:02.904Z,-1.40
2019-02-19T07:47:43.689Z,-1.20
2019-02-19T07:50:24.213Z,-1.00
2019-02-19T07:53:05.123Z,-0.90
2019-02-19T07:55:45.723Z,-0.80
2019-02-19T07:58:26.466Z,-0.60
2019-02-19T08:01:06.866Z,-0.40
2019-02-19T08:03:47.400Z,-0.20
2019-02-19T08:06:28.447Z,0.00
2019-02-19T08:09:09.051Z,0.10
2019-02-19T08:14:39.234Z,0.30
2019-02-19T08:17:20.271Z,0.50
2019-02-19T08:20:00.932Z,0.50
2019-02-19T08:22:42.095Z,0.60
2019-02-19T08:25:21.453Z,0.70
2019-02-19T08:28:09.494Z,0.80
2019-02-19T08:30:57.518Z,1.00
2019-02-19T08:33:45.659Z,1.10
2019-02-19T08:36:33.689Z,1.40
2019-02-19T08:39:21.814Z,1.60
2019-02-19T08:42:09.862Z,2.00
2019-02-19T08:44:57.923Z,2.40
2019-02-19T08:47:45.955Z,2.90
2019-02-19T08:50:33.986Z,3.20
2019-02-19T08:53:15.069Z,3.60
2019-02-19T08:55:55.707Z,4.70
2019-02-19T08:58:36.030Z,5.90
2019-02-19T09:01:16.858Z,6.30
2019-02-19T09:03:57.444Z,6.90
2019-02-19T09:06:37.938Z,7.50
2019-02-19T09:09:18.548Z,8.00
2019-02-19T09:11:59.039Z,8.60
2019-02-19T09:14:40.316Z,8.70
2019-02-19T09:17:21.209Z,8.90
2019-02-19T09:20:01.931Z,8.90
2019-02-19T09:22:42.441Z,8.90
2019-02-19T09:25:23.447Z,9.10
2019-02-19T09:28:04.066Z,9.40
2019-02-19T09:30:44.534Z,9.80
2019-02-19T09:33:25.405Z,10.70
2019-02-19T09:36:05.961Z,11.00
2019-02-19T09:38:46.628Z,11.80
2019-02-19T09:41:27.157Z,12.40
2019-02-19T09:44:07.876Z,13.40
2019-02-19T09:46:48.413Z,14.40
2019-02-19T09:49:29.229Z,14.70
2019-02-19T09:52:10.102Z,15.60
2019-02-19T09:54:51.201Z,15.10
2019-02-19T09:57:32.729Z,14.10
2019-02-19T10:00:13.392Z,14.10
2019-02-19T10:02:54.068Z,15.00
2019-02-19T10:05:35.083Z,15.60
2019-02-19T10:08:15.943Z,16.70
2019-02-19T10:10:56.574Z,17.80
2019-02-19T10:13:36.936Z,18.70
2019-02-19T10:16:17.622Z,18.60
2019-02-19T10:18:58.522Z,19.10
2019-02-19T10:24:28.282Z,19.20
2019-02-19T10:27:09.065Z,17.90
2019-02-19T10:29:52.894Z,16.20
2019-02-19T10:32:34.177Z,15.90
2019-02-19T10:35:14.720Z,16.80
2019-02-19T10:37:55.078Z,17.40
2019-02-19T10:40:36.037Z,18.60
2019-02-19T10:43:17.421Z,18.90
2019-02-19T10:45:58.585Z,18.70
2019-02-19T10:48:39.678Z,18.60
2019-02-19T10:51:20.025Z,19.10
2019-02-19T10:54:00.526Z,18.50
2019-02-19T10:56:41.331Z,18.50
2019-02-19T10:59:22.614Z,17.40
2019-02-19T11:02:03.602Z,18.60
2019-02-19T11:04:44.003Z,18.30
2019-02-19T11:07:12.886Z,18.30
2019-02-19T11:10:02.010Z,18.20
2019-02-19T11:12:50.107Z,18.60
2019-02-19T11:15:38.264Z,18.10
2019-02-19T11:18:28.679Z,17.00
2019-02-19T11:21:19.467Z,15.80
2019-02-19T11:24:06.146Z,15.90
2019-02-19T11:26:54.512Z,16.30
2019-02-19T11:29:42.640Z,16.80
2019-02-19T11:32:31.017Z,16.90
2019-02-19T11:35:19.178Z,17.60
2019-02-19T11:38:07.369Z,16.90
2019-02-19T11:40:55.658Z,16.00
2019-02-19T11:43:43.954Z,15.30
2019-02-19T11:46:32.101Z,14.70
2019-02-19T11:49:20.142Z,14.10
2019-02-19T11:52:08.341Z,13.30
2019-02-19T11:54:49.769Z,13.10
2019-02-19T11:57:31.032Z,12.70
2019-02-19T12:00:13.317Z,12.70
2019-02-19T12:02:54.429Z,12.70
2019-02-19T12:05:35.618Z,12.50
2019-02-19T12:08:16.176Z,13.10
2019-02-19T12:10:56.546Z,13.20
2019-02-19T12:13:37.236Z,13.90
2019-02-19T12:16:19.233Z,13.70
2019-02-19T12:19:00.214Z,13.20
2019-02-19T12:21:40.941Z,13.30
2019-02-19T12:24:21.353Z,14.40
2019-02-19T12:27:01.897Z,14.10
2019-02-19T12:29:42.545Z,13.90
2019-02-19T12:32:23.725Z,14.20
2019-02-19T12:35:04.725Z,14.70
2019-02-19T12:37:45.221Z,14.80
2019-02-19T12:40:25.665Z,14.70
2019-02-19T12:43:04.845Z,14.70
2019-02-19T12:45:52.994Z,14.00
2019-02-19T12:48:41.063Z,13.80
2019-02-19T12:51:29.096Z,14.70
2019-02-19T12:54:10.025Z,15.90
2019-02-19T12:56:50.726Z,16.90
2019-02-19T12:59:31.257Z,17.00
2019-02-19T13:02:12.215Z,17.00
2019-02-19T13:04:53.038Z,17.00
2019-02-19T13:07:33.558Z,16.20
2019-02-19T13:10:14.065Z,17.50
2019-02-19T13:12:54.958Z,18.10
2019-02-19T13:15:35.398Z,17.90
2019-02-19T13:18:15.975Z,17.20
2019-02-19T13:20:56.905Z,15.90
2019-02-19T13:23:37.881Z,15.00
2019-02-19T13:26:18.605Z,14.70
2019-02-19T13:28:59.565Z,14.30
2019-02-19T13:31:40.286Z,13.90
2019-02-19T13:34:21.081Z,13.50
2019-02-19T13:37:01.885Z,13.10
2019-02-19T13:39:42.569Z,12.90
2019-02-19T13:45:05.153Z,12.80
2019-02-19T13:50:27.797Z,12.20
2019-02-19T13:53:27.252Z,12.00
2019-02-19T13:56:08.083Z,12.00
2019-02-19T13:58:48.787Z,11.90
2019-02-19T14:04:18.629Z,12.10
2019-02-19T14:06:49.037Z,12.30
2019-02-19T14:09:37.133Z,12.50
2019-02-19T14:12:25.165Z,12.70
2019-02-19T14:15:32.346Z,12.50
2019-02-19T14:21:53.507Z,12.50
2019-02-19T14:24:56.934Z,12.20
2019-02-19T14:28:04.113Z,12.30
2019-02-19T14:31:11.215Z,12.20
2019-02-19T14:34:18.431Z,12.00
2019-02-19T14:37:15.939Z,11.90
2019-02-19T14:40:23.218Z,12.00
2019-02-19T14:43:30.385Z,12.00
2019-02-19T14:49:47.175Z,12.30
2019-02-19T14:52:50.397Z,12.20
2019-02-19T14:55:53.462Z,12.00
2019-02-19T14:58:53.548Z,11.70
2019-02-19T15:07:47.943Z,11.00
2019-02-19T15:10:31.367Z,10.90
2019-02-19T15:19:38.912Z,10.70
2019-02-19T15:22:37.052Z,10.70
2019-02-19T15:25:37.437Z,10.60
2019-02-19T15:28:38.869Z,10.70
2019-02-19T15:31:26.694Z,10.70
2019-02-19T15:34:22.769Z,10.60
2019-02-19T15:37:28.316Z,10.70
2019-02-19T15:40:24.348Z,10.90
2019-02-19T15:43:27.099Z,10.80
2019-02-19T15:46:27.471Z,10.80
2019-02-19T15:49:27.770Z,10.70
2019-02-19T15:52:25.463Z,10.70
2019-02-19T15:55:26.661Z,10.70
2019-02-19T15:58:30.105Z,10.70
2019-02-19T16:01:39.502Z,10.50
2019-02-19T16:04:34.000Z,10.50
2019-02-19T16:07:33.868Z,10.30
2019-02-19T16:13:07.673Z,10.20
2019-02-19T16:16:07.631Z,10.10
2019-02-19T16:19:07.780Z,10.00
2019-02-19T16:22:07.825Z,9.90
2019-02-19T16:25:07.319Z,9.80
2019-02-19T16:28:03.325Z,9.60
2019-02-19T16:31:09.520Z,9.50
2019-02-19T16:34:09.801Z,9.40
2019-02-19T16:37:02.854Z,9.30
2019-02-19T16:39:50.957Z,9.30
2019-02-19T16:45:53.854Z,9.10
2019-02-19T16:49:01.040Z,9.10
2019-02-19T16:52:03.832Z,9.10
2019-02-19T16:54:50.452Z,9.00
2019-02-19T16:57:53.157Z,9.00
2019-02-19T17:00:58.530Z,8.90
2019-02-19T17:03:58.197Z,8.80
2019-02-19T17:06:57.774Z,8.70
2019-02-19T17:09:58.958Z,8.60
2019-02-19T17:16:00.552Z,8.30
2019-02-19T17:18:49.149Z,8.20
2019-02-19T17:21:52.782Z,8.10
2019-02-19T17:24:52.919Z,8.00
2019-02-19T17:27:46.746Z,7.80
2019-02-19T17:30:52.104Z,7.70
2019-02-19T17:33:51.611Z,7.70
2019-02-19T17:36:57.375Z,7.50
2019-02-19T17:39:48.161Z,7.50
2019-02-19T17:42:55.272Z,7.40
2019-02-19T17:45:49.948Z,7.30
2019-02-19T17:48:57.041Z,7.30
2019-02-19T17:52:04.494Z,7.20
2019-02-19T17:55:04.511Z,7.10
2019-02-19T17:57:54.822Z,7.00
2019-02-19T18:00:46.125Z,6.90
2019-02-19T18:03:38.278Z,6.90
2019-02-19T18:09:46.477Z,6.70
2019-02-19T18:12:46.646Z,6.80
2019-02-19T18:15:53.086Z,6.70
2019-02-19T18:18:46.053Z,6.60
2019-02-19T18:21:26.950Z,6.50
2019-02-19T18:24:07.813Z,6.50
2019-02-19T18:26:48.391Z,6.50
2019-02-19T18:29:29.025Z,6.40
2019-02-19T18:32:09.758Z,6.40
2019-02-19T18:34:50.790Z,6.30
2019-02-19T18:37:31.297Z,6.30
2019-02-19T18:40:12.110Z,6.20
2019-02-19T18:42:52.880Z,6.20
2019-02-19T18:45:34.194Z,6.20
2019-02-19T18:48:15.138Z,6.10
2019-02-19T18:50:58.533Z,6.10
2019-02-19T18:53:38.232Z,6.10
2019-02-19T18:56:18.809Z,6.10
2019-02-19T18:58:59.494Z,6.00
2019-02-19T19:01:40.294Z,6.00
2019-02-19T19:04:21.378Z,5.90
2019-02-19T19:07:02.172Z,6.00
2019-02-19T19:09:43.214Z,5.90
2019-02-19T19:15:25.822Z,5.80
2019-02-19T19:18:06.713Z,5.80
2019-02-19T19:23:33.229Z,5.90
2019-02-19T19:26:13.699Z,5.90
2019-02-19T19:28:54.342Z,6.00
2019-02-19T19:31:34.841Z,6.00
2019-02-19T19:34:15.597Z,6.00
2019-02-19T19:36:56.206Z,6.00
2019-02-19T19:39:36.811Z,6.00
2019-02-19T19:42:17.901Z,6.10
2019-02-19T19:44:58.265Z,6.00
2019-02-19T19:47:38.909Z,6.00
2019-02-19T19:50:18.009Z,5.80
2019-02-19T19:52:59.010Z,5.70
2019-02-19T20:01:07.333Z,5.40
2019-02-19T20:03:47.999Z,5.30
2019-02-19T20:06:28.576Z,5.40
2019-02-19T20:09:09.146Z,5.40
2019-02-19T20:11:49.645Z,5.20
2019-02-19T20:14:30.330Z,5.30
2019-02-19T20:17:10.957Z,5.20
2019-02-19T20:19:51.626Z,5.10
2019-02-19T20:22:32.479Z,5.00
2019-02-19T20:25:13.184Z,4.80
2019-02-19T20:27:53.774Z,4.70
2019-02-19T20:30:34.487Z,4.50
2019-02-19T20:33:15.066Z,4.40
2019-02-19T20:35:55.822Z,4.30
2019-02-19T20:38:36.597Z,4.20
2019-02-19T20:41:17.466Z,4.10
2019-02-19T20:43:58.311Z,4.00
2019-02-19T20:46:39.001Z,3.80
2019-02-19T20:49:19.640Z,3.80
2019-02-19T20:52:00.204Z,3.70
2019-02-19T20:54:41.071Z,3.70
2019-02-19T20:57:20.199Z,3.60
2019-02-19T21:00:10.091Z,3.50
2019-02-19T21:02:58.178Z,3.50
2019-02-19T21:05:46.209Z,3.40
2019-02-19T21:08:34.352Z,3.40
2019-02-19T21:11:22.441Z,3.30
2019-02-19T21:14:10.568Z,3.20
2019-02-19T21:16:58.678Z,3.20
2019-02-19T21:19:46.789Z,3.10
2019-02-19T21:22:35.129Z,3.10
2019-02-19T21:25:30.776Z,2.90
2019-02-19T21:28:13.014Z,2.70
2019-02-19T21:31:01.108Z,2.80
2019-02-19T21:33:49.165Z,2.70
2019-02-19T21:36:38.936Z,2.60
2019-02-19T21:39:27.045Z,2.50
2019-02-19T21:42:15.401Z,2.50
2019-02-19T21:45:03.896Z,2.40
2019-02-19T21:47:52.048Z,2.40
2019-02-19T21:50:40.208Z,2.30
2019-02-19T21:53:20.940Z,2.30
2019-02-19T21:56:01.637Z,2.30
2019-02-19T22:01:24.288Z,2.30
2019-02-19T22:04:04.883Z,2.30
2019-02-19T22:09:38.751Z,2.40
2019-02-19T22:12:19.488Z,2.40
2019-02-19T22:14:59.895Z,2.40
2019-02-19T22:17:40.749Z,2.30
2019-02-19T22:20:46.267Z,2.40
2019-02-19T22:23:26.894Z,2.30
2019-02-19T22:26:07.581Z,2.20
2019-02-19T22:28:48.246Z,2.20
2019-02-19T22:31:29.137Z,2.10
2019-02-19T22:34:09.925Z,2.00
2019-02-19T22:36:50.873Z,1.80
2019-02-19T22:39:31.259Z,1.90
2019-02-19T22:42:13.487Z,1.70
2019-02-19T22:44:54.997Z,1.70
2019-02-19T22:47:35.738Z,1.50
2019-02-19T22:50:16.308Z,1.50
2019-02-19T22:55:57.302Z,1.40
2019-02-19T22:58:38.433Z,1.30
2019-02-19T23:01:41.354Z,1.30
2019-02-19T23:04:21.861Z,1.20
2019-02-19T23:07:02.659Z,1.10
2019-02-19T23:09:43.418Z,1.00
2019-02-19T23:12:24.325Z,1.00
2019-02-19T23:15:05.490Z,1.00
2019-02-19T23:17:45.842Z,0.90
2019-02-19T23:20:26.750Z,1.00
2019-02-19T23:23:07.366Z,1.00
2019-02-19T23:25:48.050Z,1.00
2019-02-19T23:28:29.018Z,1.00
2019-02-19T23:31:09.579Z,1.00
2019-02-19T23:33:50.379Z,1.00
2019-02-19T23:36:50.017Z,1.00
2019-02-19T23:39:30.681Z,0.90
2019-02-19T23:42:11.381Z,1.00
2019-02-19T23:44:52.201Z,1.00
2019-02-19T23:47:33.023Z,1.00
2019-02-19T23:50:13.551Z,1.00
2019-02-19T23:52:53.942Z,1.00
2019-02-19T23:55:34.789Z,1.00
2019-02-19T23:58:15.494Z,0.90
